createdAt,value
2019-03-04T00:01:26.937Z,18.90
2019-03-04T00:06:23.860Z,19.73
2019-03-04T00:11:22.995Z,20.40
2019-03-04T00:16:20.100Z,18.07
2019-03-04T00:21:17.107Z,17.77
2019-03-04T00:26:14.026Z,18.07
2019-03-04T00:31:10.994Z,19.30
2019-03-04T00:36:07.949Z,17.80
2019-03-04T00:41:04.935Z,18.60
2019-03-04T00:46:01.857Z,18.87
2019-03-04T00:50:58.874Z,18.70
2019-03-04T00:55:55.879Z,18.07
2019-03-04T01:00:53.695Z,16.73
2019-03-04T01:05:50.626Z,17.60
2019-03-04T01:10:47.582Z,19.77
2019-03-04T01:15:45.906Z,19.33
2019-03-04T01:20:42.959Z,15.47
2019-03-04T01:25:39.920Z,17.93
2019-03-04T01:30:36.854Z,17.20
2019-03-04T01:35:33.778Z,15.60
2019-03-04T01:40:31.149Z,16.27
2019-03-04T01:45:28.053Z,17.57
2019-03-04T01:50:24.999Z,17.67
2019-03-04T01:55:21.920Z,16.53
2019-03-04T02:00:20.634Z,19.70
2019-03-04T02:05:17.747Z,16.50
2019-03-04T02:10:18.024Z,17.00
2019-03-04T02:15:19.822Z,16.57
2019-03-04T02:20:19.011Z,18.13
2019-03-04T02:25:42.551Z,18.23
2019-03-04T02:30:39.578Z,12.07
2019-03-04T02:35:36.560Z,17.23
2019-03-04T02:40:33.482Z,17.13
2019-03-04T02:45:30.459Z,19.17
2019-03-04T02:50:27.360Z,20.13
2019-03-04T02:55:24.359Z,18.87
2019-03-04T03:00:21.369Z,17.33
2019-03-04T03:05:18.362Z,19.10
2019-03-04T03:10:15.399Z,18.63
2019-03-04T03:15:15.059Z,18.27
2019-03-04T03:20:13.239Z,18.90
2019-03-04T03:25:13.655Z,19.07
2019-03-04T03:30:14.698Z,17.80
2019-03-04T03:35:12.229Z,20.43
2019-03-04T03:40:18.629Z,20.30
2019-03-04T03:45:15.643Z,19.23
2019-03-04T03:50:15.301Z,18.90
2019-03-04T03:55:14.738Z,18.23
2019-03-04T04:00:22.555Z,21.03
2019-03-04T04:05:20.094Z,18.80
2019-03-04T04:10:18.341Z,21.93
2019-03-04T04:15:18.098Z,21.30
2019-03-04T04:20:15.248Z,19.87
2019-03-04T04:25:12.711Z,21.63
2019-03-04T04:30:15.234Z,18.47
2019-03-04T04:35:12.144Z,20.60
2019-03-04T04:40:13.131Z,20.93
2019-03-04T04:45:10.261Z,20.87
2019-03-04T04:50:21.346Z,20.17
2019-03-04T04:55:18.307Z,19.20
2019-03-04T05:00:19.714Z,22.40
2019-03-04T05:05:16.641Z,20.83
2019-03-04T05:10:19.911Z,18.40
2019-03-04T05:15:17.237Z,23.70
2019-03-04T05:20:22.285Z,19.90
2019-03-04T05:25:19.294Z,19.03
2019-03-04T05:30:19.430Z,19.67
2019-03-04T05:35:16.364Z,21.17
2019-03-04T05:40:15.948Z,20.50
2019-03-04T05:45:17.170Z,20.77
2019-03-04T05:50:22.785Z,18.93
2019-03-04T05:55:19.715Z,18.37
2019-03-04T06:00:22.739Z,18.53
2019-03-04T06:05:19.659Z,19.77
2019-03-04T06:10:16.718Z,17.77
2019-03-04T06:15:16.746Z,19.83
2019-03-04T06:20:17.327Z,17.87
2019-03-04T06:25:23.917Z,20.90
2019-03-04T06:30:27.573Z,18.90
2019-03-04T06:35:24.554Z,17.30
2019-03-04T06:40:22.022Z,20.23
2019-03-04T06:45:21.895Z,16.60
2019-03-04T06:50:45.819Z,16.30
2019-03-04T06:56:06.625Z,19.27
2019-03-04T07:01:08.990Z,21.30
2019-03-04T07:06:07.849Z,18.13
2019-03-04T07:11:08.896Z,20.23
2019-03-04T07:16:05.911Z,17.60
2019-03-04T07:21:02.946Z,19.67
2019-03-04T07:26:03.405Z,18.47
2019-03-04T07:31:00.514Z,16.47
2019-03-04T07:35:59.105Z,16.30
2019-03-04T07:40:56.137Z,18.23
2019-03-04T07:45:53.118Z,18.07
2019-03-04T07:50:50.491Z,16.27
2019-03-04T07:55:47.520Z,16.40
2019-03-04T08:00:44.535Z,16.00
2019-03-04T08:05:41.461Z,18.40
2019-03-04T08:11:23.131Z,15.90
2019-03-04T08:16:20.068Z,19.43
2019-03-04T08:21:17.041Z,17.20
2019-03-04T08:26:14.015Z,15.43
2019-03-04T08:31:13.277Z,15.63
2019-03-04T08:36:13.153Z,15.40
2019-03-04T08:41:11.495Z,14.57
2019-03-04T08:46:08.452Z,13.67
2019-03-04T08:51:07.641Z,14.30
2019-03-04T08:56:04.728Z,14.40
2019-03-04T09:01:01.829Z,15.77
2019-03-04T09:06:00.241Z,14.33
2019-03-04T09:10:57.178Z,15.47
2019-03-04T09:15:56.267Z,13.77
2019-03-04T09:20:53.325Z,12.60
2019-03-04T09:26:03.479Z,14.47
2019-03-04T09:31:03.330Z,12.30
2019-03-04T09:36:01.312Z,13.70
2019-03-04T09:40:58.387Z,12.27
2019-03-04T09:45:58.572Z,15.63
2019-03-04T09:50:57.871Z,16.43
2019-03-04T09:55:55.292Z,14.70
2019-03-04T10:01:00.662Z,11.47
2019-03-04T10:06:18.420Z,13.47
2019-03-04T10:11:37.533Z,12.47
2019-03-04T10:17:13.595Z,12.43
2019-03-04T10:22:24.507Z,12.27
2019-03-04T10:27:52.260Z,12.50
2019-03-04T10:33:12.625Z,11.47
2019-03-04T10:38:30.518Z,13.53
2019-03-04T10:44:03.471Z,11.47
2019-03-04T10:49:02.292Z,12.53
2019-03-04T10:53:59.297Z,11.17
2019-03-04T10:58:58.599Z,11.00
2019-03-04T11:03:57.565Z,12.30
2019-03-04T11:08:54.854Z,10.47
2019-03-04T11:13:51.951Z,13.77
2019-03-04T11:18:49.002Z,11.57
2019-03-04T11:23:46.753Z,11.63
2019-03-04T11:28:43.836Z,12.07
2019-03-04T11:33:43.631Z,11.50
2019-03-04T11:38:52.857Z,11.30
2019-03-04T11:43:50.803Z,11.73
2019-03-04T11:48:47.846Z,10.20
2019-03-04T11:53:44.905Z,10.27
2019-03-04T11:58:42.863Z,10.67
2019-03-04T12:03:39.874Z,12.33
2019-03-04T12:08:45.008Z,11.00
2019-03-04T12:13:44.036Z,11.30
2019-03-04T12:18:40.971Z,8.83
2019-03-04T12:23:42.517Z,9.60
2019-03-04T12:28:39.673Z,9.77
2019-03-04T12:33:38.018Z,9.70
2019-03-04T12:38:35.059Z,8.77
2019-03-04T12:43:33.430Z,9.80
2019-03-04T12:48:32.889Z,9.43
2019-03-04T12:53:37.359Z,9.87
2019-03-04T12:58:30.884Z,11.57
2019-03-04T13:03:29.834Z,9.07
2019-03-04T13:08:26.872Z,15.67
2019-03-04T13:13:23.943Z,11.17
2019-03-04T13:18:21.067Z,12.20
2019-03-04T13:23:19.962Z,11.60
2019-03-04T13:28:25.351Z,11.70
2019-03-04T13:33:22.357Z,10.30
2019-03-04T13:38:21.180Z,11.27
2019-03-04T13:43:18.317Z,10.90
2019-03-04T13:48:24.998Z,9.87
2019-03-04T13:53:22.110Z,10.80
2019-03-04T13:58:24.824Z,10.03
2019-03-04T14:03:21.816Z,10.70
2019-03-04T14:08:20.553Z,10.53
2019-03-04T14:13:17.485Z,9.30
2019-03-04T14:18:15.081Z,15.97
2019-03-04T14:23:14.647Z,10.73
2019-03-04T14:28:16.989Z,15.43
2019-03-04T14:33:14.100Z,11.43
2019-03-04T14:38:11.285Z,9.90
2019-03-04T14:43:08.485Z,11.60
2019-03-04T14:48:06.797Z,11.53
2019-03-04T14:53:04.464Z,10.90
2019-03-04T14:58:02.125Z,10.00
2019-03-04T15:02:59.368Z,11.50
2019-03-04T15:07:56.460Z,13.23
2019-03-04T15:12:53.499Z,10.70
2019-03-04T15:17:50.712Z,12.77
2019-03-04T15:22:47.774Z,10.27
2019-03-04T15:27:45.710Z,15.67
2019-03-04T15:32:42.826Z,19.20
2019-03-04T15:37:40.145Z,14.07
2019-03-04T15:42:37.078Z,18.00
2019-03-04T15:47:34.096Z,11.13
2019-03-04T15:52:31.557Z,16.47
2019-03-04T15:57:28.675Z,15.90
2019-03-04T16:02:25.855Z,16.23
2019-03-04T16:07:23.014Z,16.27
2019-03-04T16:12:21.330Z,16.47
2019-03-04T16:17:18.624Z,14.53
2019-03-04T16:22:15.576Z,17.43
2019-03-04T16:27:12.611Z,16.50
2019-03-04T16:32:09.638Z,18.50
2019-03-04T16:37:08.170Z,12.80
2019-03-04T16:42:05.722Z,11.83
2019-03-04T16:47:02.929Z,13.93
2019-03-04T16:52:00.008Z,14.97
2019-03-04T16:56:58.619Z,22.23
2019-03-04T17:01:56.536Z,16.80
2019-03-04T17:06:53.512Z,22.63
2019-03-04T17:11:50.549Z,22.90
2019-03-04T17:16:47.648Z,16.90
2019-03-04T17:21:44.715Z,15.60
2019-03-04T17:26:41.770Z,15.13
2019-03-04T17:31:38.867Z,16.27
2019-03-04T17:36:36.269Z,16.93
2019-03-04T17:41:33.180Z,17.27
2019-03-04T17:46:30.313Z,20.17
2019-03-04T17:51:27.364Z,15.60
2019-03-04T17:56:24.810Z,15.70
2019-03-04T18:01:22.224Z,16.80
2019-03-04T18:06:23.867Z,16.93
2019-03-04T18:11:20.903Z,14.37
2019-03-04T18:16:18.557Z,15.33
2019-03-04T18:21:17.429Z,15.57
2019-03-04T18:26:19.612Z,15.47
2019-03-04T18:31:58.881Z,14.77
2019-03-04T18:37:06.758Z,17.10
2019-03-04T18:42:45.576Z,14.77
2019-03-04T18:47:56.666Z,15.57
2019-03-04T18:52:55.745Z,13.10
2019-03-04T18:57:52.772Z,14.43
2019-03-04T19:02:49.788Z,17.63
2019-03-04T19:07:46.826Z,13.67
2019-03-04T19:12:43.835Z,14.47
2019-03-04T19:17:40.936Z,14.23
2019-03-04T19:22:38.074Z,14.57
2019-03-04T19:27:35.576Z,16.00
2019-03-04T19:32:32.645Z,12.53
2019-03-04T19:37:29.741Z,12.70
2019-03-04T19:42:26.725Z,10.00
2019-03-04T19:47:23.763Z,16.87
2019-03-04T19:52:20.820Z,13.63
2019-03-04T19:57:18.083Z,13.90
2019-03-04T20:02:15.481Z,12.40
2019-03-04T20:07:12.931Z,14.43
2019-03-04T20:12:10.541Z,14.23
2019-03-04T20:17:07.621Z,11.60
2019-03-04T20:22:04.657Z,14.73
2019-03-04T20:27:01.654Z,13.53
2019-03-04T20:31:58.909Z,11.50
2019-03-04T20:36:55.906Z,12.73
2019-03-04T20:41:52.897Z,10.23
2019-03-04T20:46:50.185Z,15.20
2019-03-04T20:51:47.199Z,11.93
2019-03-04T20:56:44.306Z,11.97
2019-03-04T21:01:41.330Z,13.03
2019-03-04T21:06:38.396Z,11.77
2019-03-04T21:11:35.473Z,11.67
2019-03-04T21:16:32.512Z,11.80
2019-03-04T21:21:29.487Z,10.13
2019-03-04T21:26:27.029Z,10.47
2019-03-04T21:31:53.559Z,9.30
2019-03-04T21:37:17.219Z,10.07
2019-03-04T21:42:31.792Z,10.50
2019-03-04T21:47:37.084Z,8.60
2019-03-04T21:52:40.217Z,9.40
2019-03-04T21:57:43.732Z,9.67
2019-03-04T22:02:54.900Z,10.77
2019-03-04T22:07:51.961Z,9.37
2019-03-04T22:12:49.733Z,8.97
2019-03-04T22:17:46.802Z,7.97
2019-03-04T22:22:43.868Z,9.97
2019-03-04T22:27:40.882Z,9.57
2019-03-04T22:32:37.887Z,8.17
2019-03-04T22:37:34.971Z,9.10
2019-03-04T22:42:32.051Z,9.37
2019-03-04T22:47:29.189Z,9.20
2019-03-04T22:52:26.753Z,9.20
2019-03-04T22:57:23.784Z,8.27
2019-03-04T23:02:21.621Z,10.30
2019-03-04T23:07:18.718Z,8.50
2019-03-04T23:12:30.230Z,9.87
2019-03-04T23:17:27.279Z,11.63
2019-03-04T23:22:25.218Z,10.10
2019-03-04T23:27:22.258Z,8.10
2019-03-04T23:32:19.320Z,9.57
2019-03-04T23:37:16.278Z,9.97
2019-03-04T23:42:13.270Z,12.00
2019-03-04T23:47:10.215Z,8.50
2019-03-04T23:52:07.277Z,4.47
2019-03-04T23:57:07.359Z,4.93
